createdAt,value
2022-11-14T00:00:18.714Z,102378.34
2022-11-14T00:05:40.018Z,102387.31
2022-11-14T00:10:59.986Z,102383.75
2022-11-14T00:16:16.686Z,102381.88
2022-11-14T00:21:35.227Z,102400.41
2022-11-14T00:26:51.494Z,102394.38
2022-11-14T00:32:09.130Z,102389.09
2022-11-14T00:37:27.475Z,102377.94
2022-11-14T00:42:48.991Z,102379.50
2022-11-14T00:48:09.074Z,102375.72
2022-11-14T00:53:26.419Z,102378.13
2022-11-14T00:58:44.259Z,102374.66
2022-11-14T01:04:01.073Z,102370.97
2022-11-14T01:09:20.157Z,102360.91
2022-11-14T01:14:37.993Z,102368.91
2022-11-14T01:19:58.494Z,102355.91
2022-11-14T01:25:16.361Z,102354.41
2022-11-14T01:30:34.429Z,102361.09
2022-11-14T01:35:54.644Z,102356.44
2022-11-14T01:41:15.151Z,102348.41
2022-11-14T01:46:31.972Z,102346.88
2022-11-14T01:52:03.041Z,102343.41
2022-11-14T01:57:24.263Z,102347.50
2022-11-14T02:02:41.521Z,102343.75
2022-11-14T02:07:57.292Z,102341.75
2022-11-14T02:13:28.456Z,102338.38
2022-11-14T02:18:48.282Z,102329.63
2022-11-14T02:24:05.897Z,102334.94
2022-11-14T02:29:23.020Z,102335.34
2022-11-14T02:34:41.236Z,102329.22
2022-11-14T02:39:58.144Z,102330.66
2022-11-14T02:45:15.416Z,102332.66
2022-11-14T02:50:31.070Z,102329.28
2022-11-14T02:55:50.264Z,102329.91
2022-11-14T03:01:20.369Z,102337.41
2022-11-14T03:06:42.450Z,102336.72
2022-11-14T03:11:59.463Z,102330.63
2022-11-14T03:17:19.507Z,102337.41
2022-11-14T03:22:36.453Z,102335.81
2022-11-14T03:27:54.780Z,102332.16
2022-11-14T03:33:12.272Z,102339.25
2022-11-14T03:38:29.604Z,102333.72
2022-11-14T03:43:48.747Z,102338.97
2022-11-14T03:49:07.116Z,102331.84
2022-11-14T03:54:27.766Z,102331.50
2022-11-14T03:59:46.440Z,102325.34
2022-11-14T04:05:04.179Z,102329.81
2022-11-14T04:10:20.094Z,102326.84
2022-11-14T04:15:46.119Z,102324.16
2022-11-14T04:21:02.608Z,102323.63
2022-11-14T04:26:21.383Z,102333.53
2022-11-14T04:31:38.963Z,102337.16
2022-11-14T04:36:55.167Z,102344.00
2022-11-14T04:42:12.302Z,102347.44
2022-11-14T04:47:27.980Z,102347.13
2022-11-14T04:52:48.737Z,102353.13
2022-11-14T04:58:07.469Z,102356.00
2022-11-14T05:03:24.144Z,102360.25
2022-11-14T05:08:41.258Z,102365.16
2022-11-14T05:13:57.756Z,102366.78
2022-11-14T05:19:23.847Z,102371.31
2022-11-14T05:24:41.994Z,102368.69
2022-11-14T05:29:59.051Z,102375.06
2022-11-14T05:35:15.282Z,102377.22
2022-11-14T05:40:32.122Z,102382.19
2022-11-14T05:45:48.602Z,102393.91
2022-11-14T05:51:06.637Z,102392.78
2022-11-14T05:56:23.712Z,102404.22
2022-11-14T06:01:40.473Z,102406.44
2022-11-14T06:07:00.401Z,102416.00
2022-11-14T06:12:16.569Z,102415.13
2022-11-14T06:17:34.997Z,102409.56
2022-11-14T06:22:54.275Z,102416.97
2022-11-14T06:28:12.092Z,102413.84
2022-11-14T06:33:30.492Z,102420.50
2022-11-14T06:38:50.674Z,102420.19
2022-11-14T06:44:08.685Z,102431.91
2022-11-14T06:49:35.283Z,102418.75
2022-11-14T06:54:58.536Z,102424.75
2022-11-14T07:00:18.771Z,102421.50
2022-11-14T07:05:39.724Z,102417.25
2022-11-14T07:11:01.484Z,102410.13
2022-11-14T07:16:20.786Z,102411.16
2022-11-14T07:21:37.567Z,102401.06
2022-11-14T07:26:53.904Z,102409.41
2022-11-14T07:32:13.437Z,102397.91
2022-11-14T07:37:36.808Z,102402.72
2022-11-14T07:42:59.415Z,102398.22
2022-11-14T07:48:17.047Z,102394.38
2022-11-14T07:53:35.446Z,102398.34
2022-11-14T07:58:52.935Z,102395.56
2022-11-14T08:04:09.713Z,102406.03
2022-11-14T08:09:27.011Z,102402.69
2022-11-14T08:14:44.417Z,102406.22
2022-11-14T08:20:04.716Z,102404.34
2022-11-14T08:25:25.886Z,102400.69
2022-11-14T08:30:44.697Z,102410.06
2022-11-14T08:36:01.211Z,102408.06
2022-11-14T08:41:18.535Z,102395.44
2022-11-14T08:46:37.525Z,102389.72
2022-11-14T08:51:54.284Z,102386.38
2022-11-14T08:57:15.423Z,102377.88
2022-11-14T09:02:32.259Z,102370.00
2022-11-14T09:07:52.210Z,102369.25
2022-11-14T09:13:09.947Z,102364.97
2022-11-14T09:18:27.248Z,102365.50
2022-11-14T09:23:46.470Z,102359.41
2022-11-14T09:29:08.935Z,102344.50
2022-11-14T09:34:25.209Z,102336.19
2022-11-14T09:39:41.770Z,102330.91
2022-11-14T09:44:58.507Z,102317.13
2022-11-14T09:50:23.101Z,102311.22
2022-11-14T09:55:43.536Z,102306.38
2022-11-14T10:01:12.006Z,102302.94
2022-11-14T10:06:36.382Z,102301.75
2022-11-14T10:11:53.101Z,102297.38
2022-11-14T10:17:15.538Z,102294.31
2022-11-14T10:22:50.678Z,102288.97
2022-11-14T10:28:24.154Z,102292.44
2022-11-14T10:33:50.150Z,102271.16
2022-11-14T10:39:09.302Z,102272.94
2022-11-14T10:44:31.194Z,102268.91
2022-11-14T10:49:49.530Z,102258.59
2022-11-14T10:55:15.875Z,102260.38
2022-11-14T11:00:32.585Z,102252.81
2022-11-14T11:05:52.208Z,102250.78
2022-11-14T11:11:34.046Z,102255.19
2022-11-14T11:16:52.329Z,102249.94
2022-11-14T11:22:34.016Z,102244.00
2022-11-14T11:28:05.513Z,102244.66
2022-11-14T11:33:25.202Z,102233.00
2022-11-14T11:38:42.097Z,102231.03
2022-11-14T11:44:02.632Z,102226.97
2022-11-14T11:49:38.890Z,102226.72
2022-11-14T11:55:18.402Z,102225.56
2022-11-14T12:00:35.538Z,102213.69
2022-11-14T12:06:12.025Z,102206.84
2022-11-14T12:11:32.126Z,102210.81
2022-11-14T12:17:04.228Z,102211.69
2022-11-14T12:22:27.603Z,102205.28
2022-11-14T12:28:06.791Z,102208.88
2022-11-14T12:33:27.808Z,102201.84
2022-11-14T12:38:51.331Z,102201.28
2022-11-14T12:44:32.843Z,102199.75
2022-11-14T12:49:52.911Z,102202.09
2022-11-14T12:55:37.325Z,102206.09
2022-11-14T13:01:09.491Z,102209.53
2022-11-14T13:06:27.811Z,102204.22
2022-11-14T13:12:10.707Z,102203.00
2022-11-14T13:17:51.586Z,102197.69
2022-11-14T13:23:30.777Z,102193.16
2022-11-14T13:28:50.595Z,102190.72
2022-11-14T13:34:16.737Z,102183.34
2022-11-14T13:39:53.711Z,102182.13
2022-11-14T13:45:14.776Z,102180.50
2022-11-14T13:50:37.167Z,102174.78
2022-11-14T13:56:02.430Z,102178.66
2022-11-14T14:01:27.787Z,102175.41
2022-11-14T14:07:03.942Z,102175.69
2022-11-14T14:12:43.276Z,102169.06
2022-11-14T14:18:06.648Z,102168.53
2022-11-14T14:23:32.065Z,102172.44
2022-11-14T14:29:11.730Z,102162.56
2022-11-14T14:34:29.698Z,102158.94
2022-11-14T14:40:01.294Z,102158.59
2022-11-14T14:45:19.321Z,102158.94
2022-11-14T14:50:40.230Z,102155.91
2022-11-14T14:56:09.681Z,102148.69
2022-11-14T15:01:31.586Z,102143.78
2022-11-14T15:06:48.399Z,102137.00
2022-11-14T15:12:05.419Z,102145.34
2022-11-14T15:18:58.256Z,102150.78
2022-11-14T15:23:21.744Z,102151.44
2022-11-14T15:30:14.188Z,102156.81
2022-11-14T15:35:07.639Z,102154.03
2022-11-14T15:40:24.284Z,102159.03
2022-11-14T15:45:45.696Z,102154.81
2022-11-14T15:51:09.421Z,102159.63
2022-11-14T15:56:29.172Z,102165.22
2022-11-14T16:01:49.085Z,102164.50
2022-11-14T16:07:11.529Z,102161.03
2022-11-14T16:12:32.442Z,102158.13
2022-11-14T16:17:50.777Z,102155.28
2022-11-14T16:23:06.459Z,102149.44
2022-11-14T16:28:24.040Z,102158.53
2022-11-14T16:33:44.935Z,102151.44
2022-11-14T16:39:13.193Z,102160.59
2022-11-14T16:44:31.237Z,102149.03
2022-11-14T16:49:52.186Z,102152.63
2022-11-14T16:55:12.542Z,102146.34
2022-11-14T17:00:30.958Z,102152.53
2022-11-14T17:05:50.733Z,102154.69
2022-11-14T17:11:13.227Z,102143.06
2022-11-14T17:16:30.020Z,102146.69
2022-11-14T17:21:46.762Z,102152.63
2022-11-14T17:27:07.831Z,102158.91
2022-11-14T17:32:56.169Z,102153.34
2022-11-14T17:38:28.593Z,102144.78
2022-11-14T17:43:48.016Z,102147.06
2022-11-14T17:49:11.689Z,102148.72
2022-11-14T18:00:43.908Z,102140.75
2022-11-14T18:06:28.448Z,102144.22
2022-11-14T18:11:46.730Z,102147.00
2022-11-14T18:17:12.730Z,102144.47
2022-11-14T18:22:43.063Z,102144.03
2022-11-14T18:34:13.498Z,102152.19
2022-11-14T18:39:35.063Z,102147.69
2022-11-14T18:45:26.305Z,102142.38
2022-11-14T18:50:45.079Z,102150.31
2022-11-14T18:56:08.531Z,102145.59
2022-11-14T19:01:29.599Z,102147.81
2022-11-14T19:06:47.145Z,102138.25
2022-11-14T19:12:22.504Z,102144.97
2022-11-14T19:17:39.599Z,102144.19
2022-11-14T19:22:57.765Z,102147.59
2022-11-14T19:28:13.539Z,102140.84
2022-11-14T19:33:30.674Z,102135.63
2022-11-14T19:38:49.743Z,102135.72
2022-11-14T19:44:10.959Z,102130.53
2022-11-14T19:49:30.679Z,102134.75
2022-11-14T19:54:53.461Z,102127.91
2022-11-14T20:00:09.493Z,102122.94
2022-11-14T20:05:25.632Z,102115.63
2022-11-14T20:10:55.843Z,102123.91
2022-11-14T20:16:12.854Z,102120.94
2022-11-14T20:21:29.948Z,102126.38
2022-11-14T20:26:50.938Z,102119.75
2022-11-14T20:32:15.790Z,102119.13
2022-11-14T20:37:33.775Z,102113.94
2022-11-14T20:42:56.823Z,102124.03
2022-11-14T20:48:19.181Z,102113.84
2022-11-14T20:53:40.778Z,102117.06
2022-11-14T20:59:02.747Z,102110.88
2022-11-14T21:04:35.069Z,102114.88
2022-11-14T21:22:24.060Z,102094.28
2022-11-14T21:28:06.067Z,102095.25
2022-11-14T21:33:31.347Z,102089.88
2022-11-14T21:38:49.576Z,102095.97
2022-11-14T21:50:14.315Z,102096.25
2022-11-14T21:55:35.401Z,102082.69
2022-11-14T22:00:54.978Z,102071.75
2022-11-14T22:06:13.407Z,102068.56
2022-11-14T22:11:30.043Z,102061.94
2022-11-14T22:16:52.909Z,102056.81
2022-11-14T22:22:12.085Z,102044.00
2022-11-14T22:27:33.503Z,102047.31
2022-11-14T22:32:53.345Z,102036.25
2022-11-14T22:38:16.074Z,102035.56
2022-11-14T22:43:52.380Z,102028.34
2022-11-14T22:49:19.756Z,102020.41
2022-11-14T22:54:40.711Z,102013.66
2022-11-14T23:00:04.587Z,102023.03
2022-11-14T23:05:24.092Z,102018.28
2022-11-14T23:10:47.081Z,102017.25
2022-11-14T23:16:53.960Z,102019.06
2022-11-14T23:22:12.828Z,102003.59
2022-11-14T23:27:32.015Z,102010.44
2022-11-14T23:32:48.812Z,102002.91
2022-11-14T23:38:05.876Z,102003.47
2022-11-14T23:43:24.246Z,102001.13
2022-11-14T23:48:44.284Z,101991.91
2022-11-14T23:54:05.589Z,101991.63
2022-11-14T23:59:25.649Z,101990.66
